createdAt,value
2023-01-20T00:00:15.686Z,99703.63
2023-01-20T00:03:18.415Z,99708.06
2023-01-20T00:06:28.731Z,99713.47
2023-01-20T00:09:32.162Z,99716.19
2023-01-20T00:12:34.819Z,99718.81
2023-01-20T00:15:37.533Z,99723.38
2023-01-20T00:18:41.335Z,99721.66
2023-01-20T00:21:45.562Z,99723.41
2023-01-20T00:24:48.198Z,99730.53
2023-01-20T00:27:54.344Z,99726.09
2023-01-20T00:30:59.232Z,99734.97
2023-01-20T00:34:02.780Z,99735.78
2023-01-20T00:37:09.814Z,99731.31
2023-01-20T00:40:13.675Z,99742.88
2023-01-20T00:43:16.432Z,99741.09
2023-01-20T00:46:26.663Z,99747.34
2023-01-20T00:49:32.346Z,99750.00
2023-01-20T00:52:38.110Z,99749.13
2023-01-20T00:55:40.791Z,99759.78
2023-01-20T00:58:45.539Z,99758.94
2023-01-20T01:02:03.874Z,99758.94
2023-01-20T01:05:12.721Z,99767.06
2023-01-20T01:08:19.819Z,99774.22
2023-01-20T01:11:24.790Z,99782.25
2023-01-20T01:14:31.956Z,99783.22
2023-01-20T01:17:39.284Z,99778.84
2023-01-20T01:20:46.946Z,99785.06
2023-01-20T01:23:51.849Z,99790.41
2023-01-20T01:26:54.864Z,99797.47
2023-01-20T01:29:57.480Z,99804.53
2023-01-20T01:33:00.498Z,99800.94
2023-01-20T01:36:04.794Z,99808.91
2023-01-20T01:39:08.899Z,99815.13
2023-01-20T01:42:16.214Z,99816.06
2023-01-20T01:45:27.945Z,99812.44
2023-01-20T01:48:34.728Z,99824.91
2023-01-20T01:51:42.332Z,99818.69
2023-01-20T01:54:46.499Z,99817.81
2023-01-20T01:57:50.264Z,99821.41
2023-01-20T02:00:57.847Z,99825.91
2023-01-20T02:04:06.590Z,99827.66
2023-01-20T02:07:12.778Z,99830.34
2023-01-20T02:10:19.471Z,99825.97
2023-01-20T02:13:22.287Z,99831.31
2023-01-20T02:16:43.951Z,99833.13
2023-01-20T02:20:26.659Z,99841.16
2023-01-20T02:23:55.804Z,99841.13
2023-01-20T02:27:09.414Z,99837.47
2023-01-20T02:30:32.921Z,99842.88
2023-01-20T02:33:42.107Z,99853.59
2023-01-20T02:36:48.956Z,99844.69
2023-01-20T02:39:59.841Z,99845.56
2023-01-20T02:46:34.842Z,99863.41
2023-01-20T02:49:42.151Z,99859.88
2023-01-20T02:52:55.699Z,99868.84
2023-01-20T02:55:58.555Z,99868.78
2023-01-20T02:59:05.361Z,99866.16
2023-01-20T03:02:11.935Z,99872.34
2023-01-20T03:05:22.567Z,99861.88
2023-01-20T03:08:27.991Z,99874.22
2023-01-20T03:11:33.067Z,99883.16
2023-01-20T03:14:37.013Z,99877.81
2023-01-20T03:17:40.344Z,99892.97
2023-01-20T03:20:44.469Z,99888.53
2023-01-20T03:23:49.716Z,99897.41
2023-01-20T03:26:53.270Z,99893.75
2023-01-20T03:29:55.965Z,99890.22
2023-01-20T03:32:58.826Z,99904.41
2023-01-20T03:36:03.323Z,99904.38
2023-01-20T03:39:06.732Z,99908.78
2023-01-20T03:42:13.943Z,99906.13
2023-01-20T03:45:25.469Z,99912.44
2023-01-20T03:48:42.123Z,99918.63
2023-01-20T03:51:58.048Z,99913.28
2023-01-20T03:55:05.917Z,99915.06
2023-01-20T03:58:12.767Z,99917.69
2023-01-20T04:01:22.077Z,99922.19
2023-01-20T04:04:29.903Z,99925.84
2023-01-20T04:07:34.247Z,99932.06
2023-01-20T04:10:41.954Z,99932.97
2023-01-20T04:13:44.698Z,99925.88
2023-01-20T04:16:53.261Z,99929.44
2023-01-20T04:20:07.303Z,99930.31
2023-01-20T04:23:18.696Z,99936.56
2023-01-20T04:26:21.363Z,99938.34
2023-01-20T04:29:24.061Z,99938.38
2023-01-20T04:32:26.846Z,99944.63
2023-01-20T04:35:31.660Z,99942.94
2023-01-20T04:38:35.650Z,99950.19
2023-01-20T04:41:38.471Z,99954.72
2023-01-20T04:44:41.195Z,99957.47
2023-01-20T04:47:44.155Z,99961.09
2023-01-20T04:50:46.878Z,99969.09
2023-01-20T04:53:57.846Z,99965.56
2023-01-20T04:57:00.499Z,99971.78
2023-01-20T05:00:06.533Z,99967.31
2023-01-20T05:03:09.261Z,99972.66
2023-01-20T05:06:12.668Z,99977.16
2023-01-20T05:09:17.487Z,99980.78
2023-01-20T05:12:22.537Z,99987.03
2023-01-20T05:15:25.173Z,99987.00
2023-01-20T05:18:27.823Z,99995.03
2023-01-20T05:21:30.527Z,100000.47
2023-01-20T05:24:34.601Z,100002.34
2023-01-20T05:27:37.764Z,100006.91
2023-01-20T05:30:43.012Z,100006.16
2023-01-20T05:33:45.823Z,100015.94
2023-01-20T05:36:52.340Z,100019.47
2023-01-20T05:39:56.421Z,100022.09
2023-01-20T05:43:00.182Z,100026.47
2023-01-20T05:46:07.459Z,100032.63
2023-01-20T05:49:11.473Z,100036.09
2023-01-20T05:52:14.160Z,100044.97
2023-01-20T05:55:18.238Z,100037.78
2023-01-20T05:58:23.874Z,100047.53
2023-01-20T06:01:26.953Z,100046.63
2023-01-20T06:04:29.753Z,100049.22
2023-01-20T06:07:34.545Z,100061.69
2023-01-20T06:10:38.590Z,100068.78
2023-01-20T06:13:43.576Z,100071.44
2023-01-20T06:16:46.243Z,100082.06
2023-01-20T06:20:14.198Z,100085.69
2023-01-20T06:23:17.552Z,100073.13
2023-01-20T06:26:21.618Z,100082.00
2023-01-20T06:29:24.321Z,100078.41
2023-01-20T06:32:27.449Z,100084.59
2023-01-20T06:35:30.120Z,100088.16
2023-01-20T06:38:35.064Z,100095.28
2023-01-20T06:41:39.053Z,100095.28
2023-01-20T06:44:41.729Z,100101.53
2023-01-20T06:47:44.399Z,100097.06
2023-01-20T06:50:47.028Z,100102.44
2023-01-20T06:53:49.745Z,100097.16
2023-01-20T06:56:53.786Z,100107.78
2023-01-20T06:59:58.915Z,100113.13
2023-01-20T07:03:02.071Z,100124.66
2023-01-20T07:06:08.548Z,100107.88
2023-01-20T07:09:13.679Z,100129.19
2023-01-20T07:12:17.849Z,100129.16
2023-01-20T07:15:20.620Z,100133.56
2023-01-20T07:18:29.561Z,100138.91
2023-01-20T07:21:32.459Z,100138.91
2023-01-20T07:24:40.361Z,100146.91
2023-01-20T07:27:44.376Z,100156.69
2023-01-20T07:30:53.438Z,100163.81
2023-01-20T07:33:56.825Z,100160.19
2023-01-20T07:37:01.906Z,100169.09
2023-01-20T07:40:07.387Z,100178.00
2023-01-20T07:43:11.468Z,100175.34
2023-01-20T07:46:14.877Z,100184.25
2023-01-20T07:49:17.892Z,100190.44
2023-01-20T07:52:20.872Z,100191.38
2023-01-20T07:55:25.185Z,100189.63
2023-01-20T07:58:29.985Z,100199.50
2023-01-20T08:01:33.913Z,100199.56
2023-01-20T08:04:40.717Z,100202.19
2023-01-20T08:07:43.500Z,100211.09
2023-01-20T08:10:49.024Z,100210.16
2023-01-20T08:13:53.940Z,100219.03
2023-01-20T08:16:56.644Z,100210.03
2023-01-20T08:19:59.328Z,100216.19
2023-01-20T08:23:02.007Z,100212.53
2023-01-20T08:26:07.070Z,100219.63
2023-01-20T08:29:11.295Z,100224.81
2023-01-20T08:32:14.043Z,100225.66
2023-01-20T08:35:19.579Z,100222.09
2023-01-20T08:38:22.226Z,100226.47
2023-01-20T08:41:27.684Z,100225.56
2023-01-20T08:44:34.807Z,100241.59
2023-01-20T08:47:39.846Z,100242.47
2023-01-20T08:50:42.498Z,100236.16
2023-01-20T08:53:45.719Z,100237.94
2023-01-20T08:56:51.187Z,100227.25
2023-01-20T08:59:55.821Z,100249.31
2023-01-20T09:02:58.485Z,100243.75
2023-01-20T09:06:03.357Z,100256.19
2023-01-20T09:09:06.041Z,100254.28
2023-01-20T09:12:09.190Z,100255.91
2023-01-20T09:15:14.128Z,100257.53
2023-01-20T09:18:17.497Z,100258.28
2023-01-20T09:21:20.331Z,100257.34
2023-01-20T09:24:23.352Z,100254.59
2023-01-20T09:27:26.900Z,100258.13
2023-01-20T09:30:31.164Z,100260.78
2023-01-20T09:33:36.106Z,100257.13
2023-01-20T09:36:46.802Z,100270.50
2023-01-20T09:40:07.579Z,100266.06
2023-01-20T09:43:42.814Z,100274.94
2023-01-20T09:47:18.179Z,100276.63
2023-01-20T09:50:50.284Z,100276.72
2023-01-20T09:54:04.057Z,100275.72
2023-01-20T09:57:09.136Z,100282.78
2023-01-20T10:00:18.658Z,100281.81
2023-01-20T10:03:36.903Z,100287.13
2023-01-20T10:06:44.298Z,100285.38
2023-01-20T10:10:04.531Z,100280.81
2023-01-20T10:13:14.275Z,100283.44
2023-01-20T10:16:28.373Z,100274.66
2023-01-20T10:19:38.661Z,100280.03
2023-01-20T10:22:49.967Z,100280.91
2023-01-20T10:26:02.059Z,100264.13
2023-01-20T10:29:12.803Z,100287.28
2023-01-20T10:32:32.319Z,100282.97
2023-01-20T10:35:40.119Z,100282.31
2023-01-20T10:38:52.588Z,100292.88
2023-01-20T10:42:03.350Z,100287.47
2023-01-20T10:45:19.278Z,100285.75
2023-01-20T10:48:38.231Z,100285.63
2023-01-20T10:51:54.551Z,100280.31
2023-01-20T10:55:06.155Z,100284.78
2023-01-20T10:58:18.248Z,100291.13
2023-01-20T11:01:22.172Z,100288.38
2023-01-20T11:04:24.887Z,100281.06
2023-01-20T11:07:30.149Z,100283.63
2023-01-20T11:10:34.180Z,100287.44
2023-01-20T11:13:36.855Z,100283.09
2023-01-20T11:16:41.052Z,100286.84
2023-01-20T11:19:53.086Z,100286.25
2023-01-20T11:23:06.564Z,100286.31
2023-01-20T11:26:25.595Z,100283.41
2023-01-20T11:29:31.693Z,100278.84
2023-01-20T11:32:36.687Z,100286.91
2023-01-20T11:35:39.349Z,100293.16
2023-01-20T11:38:49.163Z,100292.31
2023-01-20T11:42:12.004Z,100290.50
2023-01-20T11:45:27.495Z,100274.53
2023-01-20T11:48:30.131Z,100279.44
2023-01-20T11:51:32.728Z,100274.06
2023-01-20T11:54:37.378Z,100273.28
2023-01-20T11:57:44.667Z,100270.50
2023-01-20T12:00:52.240Z,100274.00
2023-01-20T12:04:35.032Z,100268.53
2023-01-20T12:07:44.969Z,100276.31
2023-01-20T12:10:50.714Z,100262.63
2023-01-20T12:14:23.115Z,100269.53
2023-01-20T12:17:58.591Z,100271.22
2023-01-20T12:21:07.966Z,100267.50
2023-01-20T12:24:19.566Z,100262.75
2023-01-20T12:27:29.193Z,100262.59
2023-01-20T12:30:56.902Z,100265.28
2023-01-20T12:34:15.919Z,100260.53
2023-01-20T12:37:32.560Z,100258.63
2023-01-20T12:40:43.064Z,100264.94
2023-01-20T12:43:59.777Z,100264.00
2023-01-20T12:47:19.140Z,100267.34
2023-01-20T12:50:35.576Z,100257.47
2023-01-20T12:54:06.512Z,100262.69
2023-01-20T12:57:22.199Z,100212.53
2023-01-20T13:00:54.426Z,100260.91
2023-01-20T13:04:24.593Z,100273.56
2023-01-20T13:07:51.778Z,100277.47
2023-01-20T13:11:08.668Z,100283.91
2023-01-20T13:14:18.684Z,100276.72
2023-01-20T13:17:29.076Z,100277.47
2023-01-20T13:20:32.154Z,100286.03
2023-01-20T13:23:37.780Z,100280.91
2023-01-20T13:26:40.774Z,100274.06
2023-01-20T13:29:57.490Z,100278.88
2023-01-20T13:33:08.768Z,100275.66
2023-01-20T13:36:18.160Z,100265.81
2023-01-20T13:39:41.929Z,100272.94
2023-01-20T13:42:50.539Z,100285.41
2023-01-20T13:46:34.106Z,100287.47
2023-01-20T13:49:50.630Z,100285.81
2023-01-20T13:53:05.942Z,100294.91
2023-01-20T13:56:25.538Z,100286.03
2023-01-20T13:59:28.204Z,100290.56
2023-01-20T14:02:37.385Z,100295.00
2023-01-20T14:05:44.036Z,100303.91
2023-01-20T14:08:51.656Z,100303.81
2023-01-20T14:11:56.192Z,100298.44
2023-01-20T14:14:59.712Z,100303.00
2023-01-20T14:18:03.069Z,100313.94
2023-01-20T14:21:19.970Z,100318.63
2023-01-20T14:24:30.021Z,100322.38
2023-01-20T14:27:35.613Z,100321.63
2023-01-20T14:30:38.466Z,100325.38
2023-01-20T14:33:49.270Z,100334.50
2023-01-20T14:37:00.852Z,100336.56
2023-01-20T14:40:20.538Z,100339.41
2023-01-20T14:43:23.417Z,100337.63
2023-01-20T14:46:30.026Z,100346.59
2023-01-20T14:49:44.720Z,100339.47
2023-01-20T14:52:49.014Z,100352.09
2023-01-20T14:56:07.572Z,100348.69
2023-01-20T14:59:19.877Z,100354.25
2023-01-20T15:02:30.195Z,100349.16
2023-01-20T15:05:34.683Z,100359.22
2023-01-20T15:09:04.356Z,100338.25
2023-01-20T15:12:35.507Z,100372.19
2023-01-20T15:15:38.313Z,100370.44
2023-01-20T15:18:41.521Z,100365.22
2023-01-20T15:21:46.725Z,100385.09
2023-01-20T15:24:51.955Z,100376.44
2023-01-20T15:27:55.781Z,100374.78
2023-01-20T15:31:00.231Z,100381.16
2023-01-20T15:34:03.191Z,100384.81
2023-01-20T15:37:12.545Z,100392.06
2023-01-20T15:40:26.812Z,100394.97
2023-01-20T15:43:29.612Z,100391.53
2023-01-20T15:46:32.800Z,100404.09
2023-01-20T15:49:35.731Z,100398.75
2023-01-20T15:52:38.395Z,100414.78
2023-01-20T15:55:47.226Z,100397.09
2023-01-20T15:58:53.097Z,100411.22
2023-01-20T16:01:55.816Z,100421.03
2023-01-20T16:05:02.356Z,100431.81
2023-01-20T16:08:13.206Z,100431.66
2023-01-20T16:11:18.876Z,100444.19
2023-01-20T16:14:21.734Z,100439.06
2023-01-20T16:17:26.195Z,100447.97
2023-01-20T16:20:30.904Z,100445.31
2023-01-20T16:23:33.545Z,100449.72
2023-01-20T16:26:37.556Z,100455.00
2023-01-20T16:29:41.731Z,100462.06
2023-01-20T16:32:46.210Z,100467.41
2023-01-20T16:35:56.664Z,100460.28
2023-01-20T16:38:59.500Z,100475.41
2023-01-20T16:42:11.003Z,100478.97
2023-01-20T16:45:24.367Z,100479.81
2023-01-20T16:48:27.107Z,100486.94
2023-01-20T16:51:31.357Z,100477.06
2023-01-20T16:54:36.316Z,100497.47
2023-01-20T16:57:44.491Z,100498.34
2023-01-20T17:00:59.805Z,100500.09
2023-01-20T17:04:07.771Z,100501.81
2023-01-20T17:07:14.494Z,100503.59
2023-01-20T17:10:19.165Z,100508.03
2023-01-20T17:13:23.725Z,100520.47
2023-01-20T17:16:31.812Z,100518.72
2023-01-20T17:19:35.373Z,100527.66
2023-01-20T17:22:39.840Z,100523.09
2023-01-20T17:25:51.586Z,100527.59
2023-01-20T17:29:02.470Z,100533.06
2023-01-20T17:32:05.940Z,100534.94
2023-01-20T17:35:08.995Z,100540.38
2023-01-20T17:38:11.845Z,100536.81
2023-01-20T17:41:15.421Z,100543.03
2023-01-20T17:44:25.404Z,100542.06
2023-01-20T17:47:29.977Z,100550.97
2023-01-20T17:50:38.898Z,100547.41
2023-01-20T17:53:44.709Z,100543.06
2023-01-20T17:56:47.992Z,100552.09
2023-01-20T17:59:52.252Z,100550.41
2023-01-20T18:02:56.859Z,100553.25
2023-01-20T18:06:03.426Z,100557.69
2023-01-20T18:09:08.171Z,100557.75
2023-01-20T18:12:10.933Z,100562.28
2023-01-20T18:15:15.098Z,100569.53
2023-01-20T18:18:17.953Z,100567.81
2023-01-20T18:21:22.268Z,100582.13
2023-01-20T18:24:24.937Z,100585.63
2023-01-20T18:27:27.626Z,100581.19
2023-01-20T18:30:32.033Z,100577.56
2023-01-20T18:33:38.267Z,100581.00
2023-01-20T18:36:44.987Z,100581.00
2023-01-20T18:39:48.883Z,100580.09
2023-01-20T18:42:51.692Z,100577.53
2023-01-20T18:45:56.038Z,100586.56
2023-01-20T18:48:58.795Z,100590.19
2023-01-20T18:52:01.544Z,100594.69
2023-01-20T18:55:04.510Z,100591.94
2023-01-20T18:58:08.639Z,100590.09
2023-01-20T19:01:18.486Z,100587.44
2023-01-20T19:04:24.271Z,100594.59
2023-01-20T19:07:27.142Z,100596.47
2023-01-20T19:10:29.804Z,100605.41
2023-01-20T19:13:33.327Z,100603.66
2023-01-20T19:16:39.317Z,100616.09
2023-01-20T19:19:49.545Z,100607.25
2023-01-20T19:22:52.230Z,100612.59
2023-01-20T19:26:03.429Z,100607.25
2023-01-20T19:29:10.393Z,100609.88
2023-01-20T19:32:15.352Z,100609.03
2023-01-20T19:35:18.023Z,100615.28
2023-01-20T19:38:20.684Z,100624.16
2023-01-20T19:41:27.700Z,100619.72
2023-01-20T19:44:30.533Z,100619.72
2023-01-20T19:47:35.384Z,100617.97
2023-01-20T19:50:38.470Z,100621.53
2023-01-20T19:53:41.888Z,100630.47
2023-01-20T19:56:44.674Z,100630.47
2023-01-20T19:59:50.740Z,100633.09
2023-01-20T20:02:55.305Z,100638.38
2023-01-20T20:05:58.280Z,100636.56
2023-01-20T20:09:03.269Z,100638.28
2023-01-20T20:12:07.726Z,100632.09
2023-01-20T20:15:11.069Z,100644.59
2023-01-20T20:18:15.516Z,100648.13
2023-01-20T20:21:18.315Z,100649.91
2023-01-20T20:24:29.322Z,100643.75
2023-01-20T20:27:31.941Z,100666.00
2023-01-20T20:30:34.567Z,100665.97
2023-01-20T20:33:38.807Z,100665.13
2023-01-20T20:36:41.541Z,100673.16
2023-01-20T20:39:44.357Z,100673.13
2023-01-20T20:42:48.595Z,100672.19
2023-01-20T20:45:51.456Z,100676.75
2023-01-20T20:48:56.680Z,100675.84
2023-01-20T20:51:59.331Z,100680.22
2023-01-20T20:55:01.996Z,100690.94
2023-01-20T20:58:04.918Z,100689.16
2023-01-20T21:01:11.704Z,100695.44
2023-01-20T21:04:15.677Z,100702.59
2023-01-20T21:07:23.379Z,100648.34
2023-01-20T21:10:26.066Z,100707.88
2023-01-20T21:13:29.304Z,100705.19
2023-01-20T21:16:31.977Z,100708.78
2023-01-20T21:19:36.130Z,100708.78
2023-01-20T21:22:39.197Z,100710.50
2023-01-20T21:25:41.856Z,100714.06
2023-01-20T21:28:44.901Z,100711.44
2023-01-20T21:31:48.535Z,100720.34
2023-01-20T21:34:55.306Z,100719.44
2023-01-20T21:37:57.968Z,100716.72
2023-01-20T21:41:08.273Z,100723.88
2023-01-20T21:44:33.728Z,100722.06
2023-01-20T21:47:36.431Z,100726.53
2023-01-20T21:50:57.928Z,100725.63
2023-01-20T21:54:00.531Z,100737.22
2023-01-20T21:57:04.691Z,100734.50
2023-01-20T22:00:10.554Z,100730.94
2023-01-20T22:03:16.310Z,100738.97
2023-01-20T22:06:20.283Z,100743.44
2023-01-20T22:09:22.928Z,100747.84
2023-01-20T22:12:25.832Z,100755.00
2023-01-20T22:15:29.762Z,100755.06
2023-01-20T22:18:32.740Z,100758.59
2023-01-20T22:21:36.746Z,100766.63
2023-01-20T22:24:39.449Z,100762.19
2023-01-20T22:27:45.127Z,100769.31
2023-01-20T22:30:47.920Z,100770.19
2023-01-20T22:33:58.533Z,100771.97
2023-01-20T22:37:02.596Z,100768.44
2023-01-20T22:40:06.256Z,100781.78
2023-01-20T22:43:08.920Z,100780.91
2023-01-20T22:46:13.577Z,100791.59
2023-01-20T22:49:16.267Z,100791.56
2023-01-20T22:52:20.309Z,100793.34
2023-01-20T22:55:25.374Z,100794.22
2023-01-20T22:58:28.061Z,100803.13
2023-01-20T23:01:32.764Z,100797.78
2023-01-20T23:04:38.441Z,100804.03
2023-01-20T23:07:44.714Z,100813.81
2023-01-20T23:10:47.436Z,100802.25
2023-01-20T23:13:50.566Z,100814.69
2023-01-20T23:16:53.320Z,100812.03
2023-01-20T23:19:56.565Z,100812.03
2023-01-20T23:23:03.823Z,100820.91
2023-01-20T23:26:08.694Z,100828.94
2023-01-20T23:29:11.335Z,100821.84
2023-01-20T23:32:14.977Z,100836.03
2023-01-20T23:35:17.827Z,100827.16
2023-01-20T23:38:25.605Z,100828.91
2023-01-20T23:41:28.357Z,100827.13
2023-01-20T23:44:30.997Z,100829.81
2023-01-20T23:47:36.788Z,100844.00
2023-01-20T23:50:41.056Z,100839.56
2023-01-20T23:53:45.214Z,100845.75
2023-01-20T23:56:47.889Z,100863.56
2023-01-20T23:59:50.506Z,100859.13
